EEKE

Kuressaare Airport

Kuressaare, Estonia
METAR EEKE 241950Z AUTO 04007KT 9999NDV NCD M14/M16 Q1036
Observed Flight Rules
Feb-24 @ 19:50 UTC (23 minutes ago)
Wind Clouds
40° at 7 knots
  • Clear skies
Temperatures Readings
Current -14°C / 7°F
Dewpoint -16°C / 3°F
Humidity 85%
Altimeter 30.59" Hg
Pressure 1036 hPa
Elevation 4
METAR EEKE 241950Z AUTO 04007KT 9999NDV NCD M14/M16 Q1036
Observed Flight Rules
Feb-24 @ 19:50 UTC
(23 minutes ago)
Wind
40° at 7 knots
Clouds
  • Clear skies
Temperature Dewpoint
-14°C / 7°F -16°C / 3°F
Humidity Altimeter Pressure
85% 30.59" Hg 1036 hPa